METAR Data
IDs: Format: Raw Decoded Include TAF

Data at: 1433 UTC 21 May 2019

KCIN 211415Z AUTO 12023G34KT 10SM OVC012 08/07 A2989 RMK AO2
KCIN 211355Z AUTO 12022G33KT 10SM OVC012 08/07 A2989 RMK AO2
KCIN 211335Z AUTO 11024G29KT 10SM BKN011 OVC015 08/07 A2989 RMK AO2
KCIN 211315Z AUTO 11021G34KT 10SM OVC010 09/07 A2987 RMK AO2
KCIN 211255Z AUTO 10023G30KT 10SM BKN011 OVC015 08/07 A2988 RMK AO2
KCIN 211235Z AUTO 10021G27KT 10SM BKN011 BKN016 OVC020 08/07 A2989 RMK AO2
KCIN 211215Z AUTO 11017G26KT 10SM BKN009 OVC014 08/07 A2991 RMK AO2
KCIN 211155Z AUTO 11019G25KT 9SM BKN009 OVC014 08/08 A2991 RMK AO2
KCIN 211135Z AUTO 10019KT 7SM BKN008 OVC012 08/07 A2988 RMK AO2
KCIN 211115Z AUTO 09016G22KT 4SM BR OVC008 08/07 A2988 RMK AO2
KCIN 211055Z AUTO 09020G25KT 3SM BR BKN008 BKN015 OVC033 08/07 A2989 RMK AO2 P0002
KCIN 211035Z AUTO 10021KT 3SM BR SCT010 BKN023 OVC044 08/07 A2991 RMK AO2
KCIN 211015Z AUTO 10016G24KT 2SM BR SCT008 BKN015 OVC029 08/07 A2992 RMK AO2
KCIN 210955Z AUTO 10015G21KT 3SM BR FEW008 BKN014 OVC029 08/08 A2993 RMK AO2 P0002
KCIN 210935Z AUTO 11014KT 2 1/2SM BR BKN012 BKN016 OVC022 09/07 A2994 RMK AO2
KCIN 210915Z AUTO 10015G22KT 3SM BR FEW011 BKN015 OVC037 09/07 A2994 RMK AO2
KCIN 210855Z AUTO 10017G22KT 4SM BR SCT020 OVC038 09/07 A2995 RMK AO2
KCIN 210835Z AUTO 11014G25KT 9SM FEW020 BKN039 OVC055 09/07 A2995 RMK AO2
KCIN 210815Z AUTO 09018G25KT 9SM SCT037 OVC060 10/07 A2993 RMK AO2
KCIN 210755Z AUTO 09015G20KT 10SM FEW045 OVC060 10/07 A2992 RMK AO2
KCIN 210735Z AUTO 10017KT 10SM SCT042 BKN075 OVC110 10/06 A2995 RMK AO2
KCIN 210715Z AUTO 09016G22KT 10SM SCT055 OVC070 10/07 A2994 RMK AO2
KCIN 210655Z AUTO 10014G21KT 10SM FEW020 BKN055 OVC070 10/07 A2995 RMK AO2
KCIN 210635Z AUTO 10015KT 10SM FEW021 BKN065 OVC075 10/07 A2997 RMK AO2
KCIN 210615Z AUTO 11012KT 10SM FEW022 OVC065 10/07 A2998 RMK AO2
KCIN 210555Z AUTO 11013KT 10SM OVC065 10/07 A2998 RMK AO2
KCIN 210535Z AUTO 11012KT 10SM OVC065 11/07 A2999 RMK AO2
KCIN 210515Z AUTO 11012KT 10SM BKN065 OVC075 11/07 A2999 RMK AO2
KCIN 210455Z AUTO 10014KT 10SM OVC075 11/06 A2998 RMK AO2
KCIN 210435Z AUTO 10013KT 10SM OVC075 11/06 A2998 RMK AO2
KCIN 210415Z AUTO 09012KT 10SM OVC070 11/07 A2999 RMK AO2
KCIN 210355Z AUTO 09011KT 10SM OVC070 11/07 A2999 RMK AO2
KCIN 210335Z AUTO 09010KT 10SM OVC075 11/06 A3000 RMK AO2
KCIN 210315Z AUTO 09012KT 10SM BKN075 OVC085 11/06 A2998 RMK AO2
KCIN 210255Z AUTO 09008KT 10SM OVC090 11/06 A3000 RMK AO2
KCIN 210235Z AUTO 10009KT 10SM BKN095 OVC110 11/06 A3001 RMK AO2
KCIN 210215Z AUTO 10010KT 10SM BKN110 11/06 A3001 RMK AO2
KCIN 210155Z AUTO 09009KT 10SM CLR 11/06 A3001 RMK AO2
KCIN 210135Z AUTO 09010KT 10SM CLR 12/06 A3002 RMK AO2
KCIN 210115Z AUTO 10009KT 10SM CLR 12/06 A3003 RMK AO2
KCIN 210055Z AUTO 10009KT 10SM CLR 12/05 A3003 RMK AO2
KCIN 210035Z AUTO 10010KT 10SM CLR 12/05 A3004 RMK AO2
KCIN 210015Z AUTO 09012KT 10SM CLR 13/05 A3003 RMK AO2
KCIN 202355Z AUTO 11011KT 10SM CLR 13/04 A3004 RMK AO2
KCIN 202335Z AUTO 08012KT 10SM FEW095 13/04 A3006 RMK AO2
KCIN 202315Z AUTO 09009KT 10SM BKN090 13/04 A3007 RMK AO2
KCIN 202255Z AUTO 09012KT 10SM FEW040 OVC090 13/04 A3007 RMK AO2
KCIN 202235Z AUTO 12013KT 10SM SCT040 OVC090 13/04 A3009 RMK AO2
KCIN 202215Z AUTO 09013KT 10SM FEW040 BKN090 13/04 A3009 RMK AO2
KCIN 202155Z AUTO 09011G17KT 10SM BKN095 13/04 A3009 RMK AO2
KCIN 202135Z AUTO 09013KT 10SM FEW040 FEW100 13/04 A3010 RMK AO2
KCIN 202115Z AUTO 08013KT 10SM SCT040 13/04 A3011 RMK AO2
KCIN 202055Z AUTO 08011G17KT 10SM SCT039 13/04 A3011 RMK AO2
KCIN 202035Z AUTO 10011KT 10SM BKN039 13/04 A3011 RMK AO2
KCIN 202015Z AUTO 10010G15KT 10SM BKN038 13/04 A3011 RMK AO2
KCIN 201955Z AUTO 10013KT 10SM BKN036 13/04 A3013 RMK AO2
KCIN 201935Z AUTO 11009G16KT 10SM OVC035 13/04 A3014 RMK AO2
KCIN 201915Z AUTO 10009KT 10SM OVC035 12/04 A3014 RMK AO2
KCIN 201855Z AUTO 09009KT 10SM OVC034 12/04 A3015 RMK AO2
KCIN 201835Z AUTO 09011G16KT 10SM OVC035 12/04 A3015 RMK AO2
KCIN 201815Z AUTO 07011G17KT 10SM OVC034 11/04 A3014 RMK AO2
KCIN 201755Z AUTO 07014KT 10SM BKN032 11/04 A3014 RMK AO2
KCIN 201735Z AUTO 10014G21KT 070V130 10SM OVC028 11/04 A3014 RMK AO2
KCIN 201715Z AUTO 08015KT 10SM OVC026 10/04 A3015 RMK AO2
KCIN 201655Z AUTO 08014G19KT 10SM BKN026 10/04 A3016 RMK AO2
KCIN 201635Z AUTO 08015KT 10SM BKN025 BKN030 10/05 A3017 RMK AO2
KCIN 201615Z AUTO 08013G19KT 10SM BKN021 OVC027 10/05 A3017 RMK AO2
KCIN 201555Z AUTO 06014KT OVC020 09/04 A3017 RMK AO2
KCIN 201535Z AUTO 05016KT 10SM OVC021 08/04 A3016 RMK AO2
KCIN 201515Z AUTO 05015KT 10SM BKN020 BKN027 08/04 A3017 RMK AO2
KCIN 201455Z AUTO 05013KT 10SM BKN020 08/04 A3017 RMK AO2
KCIN 201435Z AUTO 04014KT 10SM BKN019 OVC023 08/04 A3017 RMK AO2
KCIN 201415Z AUTO 03012KT 10SM BKN018 BKN023 08/04 A3016 RMK AO2
KCIN 201355Z AUTO 03011KT 10SM FEW016 07/03 A3015 RMK AO2
KCIN 201335Z AUTO 01012KT 10SM SCT016 07/03 A3013 RMK AO2
KCIN 201315Z AUTO 02011KT 10SM FEW016 06/03 A3014 RMK AO2
KCIN 201255Z AUTO 02013KT 10SM SCT016 06/03 A3013 RMK AO2
KCIN 201235Z AUTO 01012KT 10SM OVC017 05/02 A3014 RMK AO2
KCIN 201215Z AUTO 01012KT 10SM OVC018 05/02 A3014 RMK AO2
KCIN 201155Z AUTO 01010KT 10SM OVC018 05/02 A3014 RMK AO2
KCIN 201135Z AUTO 01008KT 10SM BKN018 04/02 A3013 RMK AO2
KCIN 201115Z AUTO 01008KT 10SM FEW017 04/02 A3012 RMK AO2
KCIN 201055Z AUTO 02007KT 10SM BKN017 04/02 A3011 RMK AO2
KCIN 201035Z AUTO 36005KT 10SM OVC018 04/02 A3012 RMK AO2
KCIN 201015Z AUTO 02007KT 10SM OVC019 05/02 A3011 RMK AO2
KCIN 200955Z AUTO 03010KT 10SM OVC019 05/02 A3010 RMK AO2
KCIN 200935Z AUTO 01009KT 10SM OVC018 05/02 A3010 RMK AO2
KCIN 200915Z AUTO 01012KT 10SM OVC016 05/02 A3010 RMK AO2
KCIN 200855Z AUTO 36011KT 10SM OVC015 05/03 A3009 RMK AO2
KCIN 200835Z AUTO 02010KT 10SM OVC017 05/02 A3008 RMK AO2
KCIN 200815Z AUTO 35009G14KT 10SM OVC018 05/02 A3008 RMK AO2
KCIN 200755Z AUTO 01010KT 10SM BKN021 05/02 A3007 RMK AO2
KCIN 200735Z AUTO 36011KT 10SM BKN024 05/02 A3007 RMK AO2
KCIN 200715Z AUTO 35012KT 10SM OVC021 05/02 A3008 RMK AO2
KCIN 200655Z AUTO 01012G17KT 10SM OVC017 05/03 A3007 RMK AO2
KCIN 200635Z AUTO 01012G18KT 10SM BKN015 OVC024 05/03 A3007 RMK AO2
KCIN 200615Z AUTO 36013KT 10SM FEW014 OVC023 06/04 A3007 RMK AO2
KCIN 200555Z AUTO 36010KT 10SM SCT015 BKN022 OVC026 06/04 A3007 RMK AO2
KCIN 200535Z AUTO 36011KT 10SM FEW007 SCT012 BKN016 06/04 A3006 RMK AO2
KCIN 200515Z AUTO 36014KT 8SM SCT009 BKN013 OVC022 06/05 A3005 RMK AO2
KCIN 200455Z AUTO 36013G19KT 2 1/2SM -RA BKN007 BKN013 OVC020 06/05 A3005 RMK AO2
KCIN 200435Z AUTO 36014KT 3SM -UP SCT007 BKN012 OVC019 06/05 A3004 RMK AO2
KCIN 200415Z AUTO 36010KT 10SM BKN014 OVC020 07/05 A3003 RMK AO2
KCIN 200355Z AUTO 36015KT 10SM BKN015 OVC027 08/06 A3001 RMK AO2
KCIN 200335Z AUTO 33011KT 10SM FEW015 BKN026 OVC036 08/06 A3000 RMK AO2
KCIN 200315Z AUTO 34010KT 08/06 A2999 RMK AO2
KCIN 200255Z AUTO 35012G18KT 10SM FEW009 SCT012 BKN022 08/06 A2997 RMK AO2
KCIN 200235Z AUTO 35015KT 10SM SCT010 BKN019 OVC030 08/07 A2996 RMK AO2